createdAt,value
2019-06-10T00:00:22.494Z,856.37
2019-06-10T00:01:22.500Z,856.41
2019-06-10T00:02:22.474Z,856.38
2019-06-10T00:03:22.459Z,856.40
2019-06-10T00:04:22.461Z,856.42
2019-06-10T00:05:22.476Z,856.42
2019-06-10T00:06:22.440Z,856.38
2019-06-10T00:07:22.429Z,856.42
2019-06-10T00:08:22.419Z,856.39
2019-06-10T00:09:22.397Z,856.44
2019-06-10T00:10:22.426Z,856.48
2019-06-10T00:11:22.389Z,856.47
2019-06-10T00:12:22.405Z,856.39
2019-06-10T00:13:22.356Z,856.34
2019-06-10T00:14:22.354Z,856.29
2019-06-10T00:15:22.335Z,856.27
2019-06-10T00:16:22.327Z,856.30
2019-06-10T00:17:22.320Z,856.25
2019-06-10T00:18:35.407Z,856.22
2019-06-10T00:19:23.295Z,856.15
2019-06-10T00:20:22.366Z,856.20
2019-06-10T00:21:22.316Z,856.20
2019-06-10T00:22:22.262Z,856.17
2019-06-10T00:23:22.366Z,856.15
2019-06-10T00:24:22.275Z,856.16
2019-06-10T00:25:22.237Z,856.14
2019-06-10T00:26:22.222Z,856.15
2019-06-10T00:27:22.212Z,856.14
2019-06-10T00:28:22.196Z,856.17
2019-06-10T00:29:22.491Z,856.13
2019-06-10T00:30:23.224Z,856.15
2019-06-10T00:31:22.189Z,856.14
2019-06-10T00:32:22.162Z,856.28
2019-06-10T00:33:22.144Z,856.34
2019-06-10T00:34:22.134Z,856.40
2019-06-10T00:35:22.143Z,856.35
2019-06-10T00:36:22.187Z,856.31
2019-06-10T00:37:22.115Z,856.26
2019-06-10T00:38:22.092Z,856.33
2019-06-10T00:39:22.366Z,856.44
2019-06-10T00:40:22.062Z,856.46
2019-06-10T00:41:22.142Z,856.48
2019-06-10T00:42:22.099Z,856.49
2019-06-10T00:43:22.035Z,856.60
2019-06-10T00:44:22.033Z,856.57
2019-06-10T00:45:22.013Z,856.62
2019-06-10T00:46:22.063Z,856.59
2019-06-10T00:47:21.997Z,856.44
2019-06-10T00:48:28.396Z,856.44
2019-06-10T00:49:23.041Z,856.44
2019-06-10T00:50:21.959Z,856.45
2019-06-10T00:51:21.949Z,856.50
2019-06-10T00:52:21.978Z,856.54
2019-06-10T00:53:21.940Z,856.52
2019-06-10T00:54:22.116Z,856.50
2019-06-10T00:55:21.913Z,856.43
2019-06-10T00:56:21.959Z,856.39
2019-06-10T00:57:21.887Z,856.32
2019-06-10T00:58:21.929Z,856.26
2019-06-10T00:59:22.271Z,856.14
2019-06-10T01:00:25.545Z,856.01
2019-06-10T01:01:22.106Z,855.90
2019-06-10T01:02:21.827Z,855.82
2019-06-10T01:03:21.907Z,855.72
2019-06-10T01:04:21.864Z,855.69
2019-06-10T01:05:21.799Z,855.67
2019-06-10T01:06:21.798Z,855.71
2019-06-10T01:07:21.968Z,855.62
2019-06-10T01:08:21.777Z,855.53
2019-06-10T01:09:22.028Z,855.44
2019-06-10T01:10:22.096Z,855.42
2019-06-10T01:11:27.025Z,855.36
2019-06-10T01:12:22.738Z,855.34
2019-06-10T01:13:21.755Z,855.27
2019-06-10T01:14:21.844Z,855.27
2019-06-10T01:15:21.902Z,855.28
2019-06-10T01:16:21.876Z,855.31
2019-06-10T01:17:21.665Z,855.21
2019-06-10T01:18:34.601Z,855.20
2019-06-10T01:19:23.963Z,855.16
2019-06-10T01:20:21.653Z,855.23
2019-06-10T01:21:21.970Z,855.30
2019-06-10T01:22:21.612Z,855.34
2019-06-10T01:23:21.980Z,855.52
2019-06-10T01:24:22.338Z,855.61
2019-06-10T01:25:21.756Z,855.69
2019-06-10T01:26:21.818Z,855.72
2019-06-10T01:27:21.565Z,855.73
2019-06-10T01:28:22.214Z,855.75
2019-06-10T01:29:21.615Z,855.91
2019-06-10T01:30:26.375Z,856.02
2019-06-10T01:31:24.341Z,856.19
2019-06-10T01:32:22.296Z,856.21
2019-06-10T01:33:21.491Z,856.30
2019-06-10T01:34:21.933Z,856.51
2019-06-10T01:35:21.504Z,856.44
2019-06-10T01:36:21.480Z,856.35
2019-06-10T01:37:21.917Z,856.29
2019-06-10T01:38:21.449Z,856.15
2019-06-10T01:39:22.659Z,856.15
2019-06-10T01:40:21.414Z,856.17
2019-06-10T01:41:21.619Z,856.15
2019-06-10T01:42:21.710Z,856.15
2019-06-10T01:43:21.595Z,856.09
2019-06-10T01:44:22.088Z,856.06
2019-06-10T01:45:21.404Z,856.02
2019-06-10T01:46:21.389Z,856.04
2019-06-10T01:47:21.692Z,856.10
2019-06-10T01:48:21.329Z,856.14
2019-06-10T01:49:21.571Z,856.06
2019-06-10T01:50:21.915Z,856.02
2019-06-10T01:51:21.611Z,855.89
2019-06-10T01:52:21.565Z,855.77
2019-06-10T01:53:22.066Z,855.67
2019-06-10T01:54:21.494Z,855.66
2019-06-10T01:55:21.931Z,855.62
2019-06-10T01:56:21.635Z,855.61
2019-06-10T01:57:21.890Z,855.64
2019-06-10T01:58:23.594Z,855.64
2019-06-10T01:59:22.000Z,855.66
2019-06-10T02:00:25.318Z,855.68
2019-06-10T02:01:23.352Z,855.63
2019-06-10T02:02:23.783Z,855.54
2019-06-10T02:03:23.804Z,855.42
2019-06-10T02:04:22.208Z,855.38
2019-06-10T02:05:22.866Z,855.42
2019-06-10T02:06:25.302Z,855.43
2019-06-10T02:07:23.034Z,855.43
2019-06-10T02:08:22.204Z,855.43
2019-06-10T02:09:23.203Z,855.42
2019-06-10T02:10:23.010Z,855.49
2019-06-10T02:11:23.479Z,855.52
2019-06-10T02:12:24.047Z,855.50
2019-06-10T02:13:22.080Z,855.43
2019-06-10T02:14:24.192Z,855.42
2019-06-10T02:15:22.611Z,855.41
2019-06-10T02:16:24.018Z,855.40
2019-06-10T02:17:23.836Z,855.46
2019-06-10T02:18:22.483Z,855.44
2019-06-10T02:19:22.953Z,855.47
2019-06-10T02:20:23.824Z,855.42
2019-06-10T02:21:24.261Z,855.39
2019-06-10T02:22:24.232Z,855.44
2019-06-10T02:23:22.965Z,855.47
2019-06-10T02:24:23.131Z,855.46
2019-06-10T02:25:21.684Z,855.39
2019-06-10T02:26:23.258Z,855.41
2019-06-10T02:27:21.876Z,855.38
2019-06-10T02:28:22.019Z,855.43
2019-06-10T02:29:22.248Z,855.45
2019-06-10T02:30:38.622Z,855.49
2019-06-10T02:31:30.450Z,855.51
2019-06-10T02:32:31.314Z,855.50
2019-06-10T02:33:30.131Z,855.52
2019-06-10T02:34:26.853Z,855.52
2019-06-10T02:35:30.613Z,855.47
2019-06-10T02:36:30.536Z,855.48
2019-06-10T02:37:32.652Z,855.48
2019-06-10T02:38:32.799Z,855.49
2019-06-10T02:39:28.051Z,855.41
2019-06-10T02:40:31.337Z,855.32
2019-06-10T02:41:29.539Z,855.23
2019-06-10T02:42:29.871Z,855.19
2019-06-10T02:43:29.393Z,855.22
2019-06-10T02:44:32.171Z,855.30
2019-06-10T02:45:30.739Z,855.37
2019-06-10T02:46:30.510Z,855.39
2019-06-10T02:47:26.371Z,855.36
2019-06-10T02:48:27.913Z,855.24
2019-06-10T02:49:45.241Z,855.21
2019-06-10T02:50:29.835Z,855.18
2019-06-10T02:51:24.732Z,855.20
2019-06-10T02:52:31.549Z,855.22
2019-06-10T02:53:27.744Z,855.24
2019-06-10T02:54:28.906Z,855.22
2019-06-10T02:55:30.127Z,855.21
2019-06-10T02:56:25.360Z,855.24
2019-06-10T02:57:29.490Z,855.16
2019-06-10T02:58:24.225Z,855.18
2019-06-10T02:59:26.625Z,855.24
2019-06-10T03:00:34.287Z,855.20
2019-06-10T03:01:23.345Z,855.21
2019-06-10T03:02:23.743Z,855.12
2019-06-10T03:03:32.790Z,855.03
2019-06-10T03:04:26.727Z,855.03
2019-06-10T03:05:29.711Z,854.99
2019-06-10T03:06:29.770Z,855.09
2019-06-10T03:07:28.109Z,855.15
2019-06-10T03:08:26.624Z,855.22
2019-06-10T03:09:26.402Z,855.27
2019-06-10T03:10:29.603Z,855.27
2019-06-10T03:11:27.247Z,855.19
2019-06-10T03:12:24.271Z,855.12
2019-06-10T03:13:22.726Z,855.10
2019-06-10T03:14:22.637Z,855.07
2019-06-10T03:15:20.394Z,855.05
2019-06-10T03:16:22.668Z,855.00
2019-06-10T03:17:20.380Z,854.95
2019-06-10T03:18:20.362Z,854.97
2019-06-10T03:19:39.771Z,854.97
2019-06-10T03:20:24.318Z,854.97
2019-06-10T03:21:23.061Z,854.97
2019-06-10T03:22:22.580Z,854.89
2019-06-10T03:23:22.702Z,854.75
2019-06-10T03:24:22.386Z,854.75
2019-06-10T03:25:22.613Z,854.83
2019-06-10T03:26:21.904Z,854.84
2019-06-10T03:27:21.149Z,854.91
2019-06-10T03:28:22.735Z,854.94
2019-06-10T03:29:21.247Z,854.85
2019-06-10T03:30:35.829Z,854.81
2019-06-10T03:31:29.967Z,854.80
2019-06-10T03:32:25.015Z,854.81
2019-06-10T03:33:27.669Z,854.84
2019-06-10T03:34:30.004Z,854.85
2019-06-10T03:35:23.815Z,854.88
2019-06-10T03:36:20.215Z,854.92
2019-06-10T03:37:20.955Z,854.82
2019-06-10T03:38:20.884Z,854.85
2019-06-10T03:39:21.382Z,854.89
2019-06-10T03:40:28.062Z,854.91
2019-06-10T03:41:21.246Z,854.95
2019-06-10T03:42:21.375Z,854.98
2019-06-10T03:43:21.418Z,854.98
2019-06-10T03:44:23.493Z,854.91
2019-06-10T03:45:21.254Z,854.84
2019-06-10T03:46:21.726Z,854.78
2019-06-10T03:47:21.123Z,854.88
2019-06-10T03:48:21.128Z,854.92
2019-06-10T03:49:21.851Z,854.90
2019-06-10T03:50:21.890Z,854.86
2019-06-10T03:51:21.183Z,854.81
2019-06-10T03:52:22.471Z,854.80
2019-06-10T03:53:21.261Z,854.77
2019-06-10T03:54:22.761Z,854.78
2019-06-10T03:55:22.973Z,854.75
2019-06-10T03:56:23.548Z,854.70
2019-06-10T03:57:21.759Z,854.66
2019-06-10T03:58:20.048Z,854.46
2019-06-10T03:59:21.724Z,854.44
2019-06-10T04:00:19.901Z,854.44
2019-06-10T04:01:19.889Z,854.43
2019-06-10T04:02:22.330Z,854.44
2019-06-10T04:03:19.956Z,854.45
2019-06-10T04:04:22.419Z,854.49
2019-06-10T04:05:19.859Z,854.58
2019-06-10T04:06:19.882Z,854.58
2019-06-10T04:07:20.875Z,854.57
2019-06-10T04:08:22.038Z,854.72
2019-06-10T04:09:19.808Z,854.74
2019-06-10T04:10:19.821Z,854.82
2019-06-10T04:11:19.787Z,854.77
2019-06-10T04:12:19.830Z,854.78
2019-06-10T04:13:19.760Z,854.77
2019-06-10T04:14:22.041Z,854.80
2019-06-10T04:15:19.800Z,854.81
2019-06-10T04:16:22.212Z,854.77
2019-06-10T04:17:19.719Z,854.77
2019-06-10T04:18:19.801Z,854.80
2019-06-10T04:19:19.705Z,854.85
2019-06-10T04:20:19.840Z,854.95
2019-06-10T04:21:22.312Z,854.98
2019-06-10T04:22:19.663Z,854.98
2019-06-10T04:23:19.731Z,854.92
2019-06-10T04:24:22.709Z,854.88
2019-06-10T04:25:19.908Z,854.98
2019-06-10T04:26:19.807Z,855.04
2019-06-10T04:27:20.430Z,855.12
2019-06-10T04:28:19.803Z,855.14
2019-06-10T04:29:20.022Z,855.06
2019-06-10T04:30:24.260Z,854.92
2019-06-10T04:31:21.298Z,854.89
2019-06-10T04:32:20.263Z,854.98
2019-06-10T04:33:22.861Z,855.08
2019-06-10T04:34:20.556Z,855.15
2019-06-10T04:35:21.000Z,855.12
2019-06-10T04:36:21.017Z,855.10
2019-06-10T04:37:20.373Z,855.07
2019-06-10T04:38:20.971Z,855.04
2019-06-10T04:39:20.495Z,855.06
2019-06-10T04:40:21.092Z,855.06
2019-06-10T04:41:20.493Z,855.03
2019-06-10T04:42:20.890Z,855.03
2019-06-10T04:43:20.417Z,854.99
2019-06-10T04:44:20.581Z,855.07
2019-06-10T04:45:20.538Z,855.03
2019-06-10T04:46:20.648Z,854.99
2019-06-10T04:47:20.564Z,855.04
2019-06-10T04:48:21.225Z,855.08
2019-06-10T04:49:20.636Z,855.07
2019-06-10T04:50:27.064Z,855.01
2019-06-10T04:51:22.963Z,854.85
2019-06-10T04:52:20.663Z,854.76
2019-06-10T04:53:21.335Z,854.86
2019-06-10T04:54:20.726Z,854.86
2019-06-10T04:55:21.210Z,855.02
2019-06-10T04:56:19.711Z,855.02
2019-06-10T04:57:19.302Z,855.01
2019-06-10T04:58:19.519Z,855.02
2019-06-10T04:59:19.277Z,855.01
2019-06-10T05:00:19.312Z,854.95
2019-06-10T05:01:19.279Z,854.91
2019-06-10T05:02:19.425Z,854.90
2019-06-10T05:03:19.278Z,854.88
2019-06-10T05:04:19.268Z,854.88
2019-06-10T05:05:19.208Z,854.91
2019-06-10T05:06:19.198Z,854.94
2019-06-10T05:07:19.181Z,854.95
2019-06-10T05:08:19.191Z,854.95
2019-06-10T05:09:19.230Z,854.99
2019-06-10T05:10:19.201Z,855.02
2019-06-10T05:11:19.166Z,854.95
2019-06-10T05:12:19.251Z,854.90
2019-06-10T05:13:19.356Z,854.82
2019-06-10T05:14:19.397Z,854.78
2019-06-10T05:15:19.649Z,854.74
2019-06-10T05:16:19.559Z,854.82
2019-06-10T05:17:19.396Z,854.84
2019-06-10T05:18:19.524Z,854.93
2019-06-10T05:19:19.832Z,855.00
2019-06-10T05:20:19.754Z,854.91
2019-06-10T05:21:19.679Z,854.84
2019-06-10T05:22:19.591Z,854.79
2019-06-10T05:23:19.622Z,854.83
2019-06-10T05:24:19.746Z,854.85
2019-06-10T05:25:20.402Z,854.86
2019-06-10T05:26:20.018Z,854.88
2019-06-10T05:27:20.458Z,854.82
2019-06-10T05:28:19.963Z,854.86
2019-06-10T05:29:20.154Z,854.95
2019-06-10T05:30:20.024Z,854.92
2019-06-10T05:31:20.179Z,854.90
2019-06-10T05:32:20.141Z,854.88
2019-06-10T05:33:20.256Z,854.94
2019-06-10T05:34:18.925Z,854.93
2019-06-10T05:35:18.895Z,854.91
2019-06-10T05:36:18.883Z,854.87
2019-06-10T05:37:18.855Z,854.81
2019-06-10T05:38:18.844Z,854.77
2019-06-10T05:39:18.853Z,854.77
2019-06-10T05:40:19.164Z,854.73
2019-06-10T05:41:18.822Z,854.68
2019-06-10T05:42:19.757Z,854.70
2019-06-10T05:43:18.783Z,854.75
2019-06-10T05:44:18.791Z,854.80
2019-06-10T05:45:19.064Z,854.88
2019-06-10T05:46:18.813Z,854.88
2019-06-10T05:47:18.741Z,854.94
2019-06-10T05:48:18.800Z,854.88
2019-06-10T05:49:18.723Z,854.77
2019-06-10T05:50:18.722Z,854.86
2019-06-10T05:51:18.711Z,854.94
2019-06-10T05:52:18.720Z,854.95
2019-06-10T05:53:18.681Z,855.00
2019-06-10T05:54:18.669Z,855.05
2019-06-10T05:55:18.691Z,854.99
2019-06-10T05:56:18.649Z,854.84
2019-06-10T05:57:18.640Z,854.92
2019-06-10T05:58:18.622Z,854.95
2019-06-10T05:59:18.609Z,855.00
2019-06-10T06:00:18.600Z,854.94
2019-06-10T06:01:18.631Z,854.90
2019-06-10T06:02:18.580Z,854.94
2019-06-10T06:03:18.571Z,854.87
2019-06-10T06:04:18.567Z,854.87
2019-06-10T06:05:18.552Z,854.87
2019-06-10T06:06:18.593Z,854.93
2019-06-10T06:07:18.518Z,855.04
2019-06-10T06:08:18.510Z,855.15
2019-06-10T06:09:18.520Z,855.10
2019-06-10T06:10:18.503Z,855.06
2019-06-10T06:11:18.489Z,855.01
2019-06-10T06:12:18.518Z,854.97
2019-06-10T06:13:18.576Z,855.01
2019-06-10T06:14:18.459Z,855.06
2019-06-10T06:15:18.438Z,855.09
2019-06-10T06:16:18.425Z,855.06
2019-06-10T06:17:18.432Z,855.02
2019-06-10T06:18:18.487Z,855.01
2019-06-10T06:19:18.389Z,855.05
2019-06-10T06:20:18.385Z,855.09
2019-06-10T06:21:26.687Z,855.03
2019-06-10T06:22:19.356Z,855.01
2019-06-10T06:23:18.357Z,854.87
2019-06-10T06:24:18.374Z,854.90
2019-06-10T06:25:18.331Z,854.99
2019-06-10T06:26:18.379Z,855.00
2019-06-10T06:27:18.307Z,855.03
2019-06-10T06:28:18.306Z,854.94
2019-06-10T06:29:18.310Z,854.89
2019-06-10T06:30:18.983Z,854.87
2019-06-10T06:31:18.323Z,854.85
2019-06-10T06:32:18.327Z,854.95
2019-06-10T06:33:18.235Z,854.99
2019-06-10T06:34:18.227Z,855.01
2019-06-10T06:35:18.265Z,855.00
2019-06-10T06:36:18.235Z,855.00
2019-06-10T06:37:18.249Z,854.98
2019-06-10T06:38:18.190Z,854.93
2019-06-10T06:39:18.190Z,854.97
2019-06-10T06:40:18.176Z,855.03
2019-06-10T06:41:18.153Z,855.14
2019-06-10T06:42:18.143Z,855.12
2019-06-10T06:43:18.167Z,855.00
2019-06-10T06:44:18.114Z,854.88
2019-06-10T06:45:18.104Z,854.94
2019-06-10T06:46:18.104Z,855.05
2019-06-10T06:47:18.084Z,855.08
2019-06-10T06:48:18.082Z,855.08
2019-06-10T06:49:18.113Z,855.04
2019-06-10T06:50:18.053Z,855.00
2019-06-10T06:51:30.404Z,855.02
2019-06-10T06:52:34.679Z,854.98
2019-06-10T06:53:28.805Z,854.91
2019-06-10T06:54:19.024Z,855.00
2019-06-10T06:55:18.043Z,855.06
2019-06-10T06:56:18.033Z,855.07
2019-06-10T06:57:17.983Z,855.06
2019-06-10T06:58:18.232Z,854.90
2019-06-10T06:59:17.952Z,854.88
2019-06-10T07:00:38.780Z,854.83
2019-06-10T07:01:18.971Z,854.81
2019-06-10T07:02:17.939Z,854.84
2019-06-10T07:03:18.311Z,854.87
2019-06-10T07:04:17.902Z,854.77
2019-06-10T07:05:17.942Z,854.81
2019-06-10T07:06:17.883Z,854.73
2019-06-10T07:07:18.209Z,854.58
2019-06-10T07:08:17.859Z,854.48
2019-06-10T07:09:17.861Z,854.52
2019-06-10T07:10:17.868Z,854.59
2019-06-10T07:11:17.828Z,854.66
2019-06-10T07:12:17.848Z,854.64
2019-06-10T07:13:17.848Z,854.54
2019-06-10T07:14:24.825Z,854.45
2019-06-10T07:15:17.799Z,854.52
2019-06-10T07:16:17.779Z,854.46
2019-06-10T07:17:17.854Z,854.50
2019-06-10T07:18:17.767Z,854.51
2019-06-10T07:19:17.810Z,854.44
2019-06-10T07:20:17.731Z,854.41
2019-06-10T07:21:17.811Z,854.33
2019-06-10T07:22:17.806Z,854.37
2019-06-10T07:23:17.747Z,854.41
2019-06-10T07:24:17.707Z,854.36
2019-06-10T07:25:17.801Z,854.38
2019-06-10T07:26:17.678Z,854.31
2019-06-10T07:27:17.858Z,854.27
2019-06-10T07:28:17.742Z,854.27
2019-06-10T07:29:18.134Z,854.29
2019-06-10T07:30:17.714Z,854.37
2019-06-10T07:31:24.079Z,854.32
2019-06-10T07:32:18.627Z,854.37
2019-06-10T07:33:17.598Z,854.33
2019-06-10T07:34:17.620Z,854.31
2019-06-10T07:35:17.588Z,854.19
2019-06-10T07:36:17.581Z,854.29
2019-06-10T07:37:17.546Z,854.29
2019-06-10T07:38:17.553Z,854.32
2019-06-10T07:39:17.662Z,854.25
2019-06-10T07:40:17.699Z,854.15
2019-06-10T07:41:17.580Z,854.10
2019-06-10T07:42:17.572Z,854.22
2019-06-10T07:43:17.874Z,854.25
2019-06-10T07:44:39.052Z,854.31
2019-06-10T07:45:17.476Z,854.32
2019-06-10T07:46:17.812Z,854.22
2019-06-10T07:47:17.545Z,854.13
2019-06-10T07:48:17.434Z,854.14
2019-06-10T07:49:17.439Z,854.09
2019-06-10T07:50:17.493Z,854.13
2019-06-10T07:51:17.410Z,854.32
2019-06-10T07:52:19.912Z,854.28
2019-06-10T07:53:17.432Z,854.25
2019-06-10T07:54:17.409Z,854.28
2019-06-10T07:55:17.359Z,854.24
2019-06-10T07:56:17.432Z,854.21
2019-06-10T07:57:17.346Z,854.28
2019-06-10T07:58:17.413Z,854.33
2019-06-10T07:59:17.680Z,854.31
2019-06-10T08:00:18.302Z,854.24
2019-06-10T08:01:17.483Z,854.17
2019-06-10T08:03:22.306Z,854.02
2019-06-10T08:04:22.510Z,853.96
2019-06-10T08:05:19.443Z,854.04
2019-06-10T08:06:19.454Z,854.16
2019-06-10T08:07:19.632Z,854.28
2019-06-10T08:08:19.796Z,854.39
2019-06-10T08:09:19.793Z,854.37
2019-06-10T08:11:26.635Z,854.08
2019-06-10T08:12:26.860Z,854.02
2019-06-10T08:13:26.506Z,854.08
2019-06-10T08:15:22.873Z,854.07
2019-06-10T08:16:20.179Z,854.02
2019-06-10T08:17:22.251Z,854.14
2019-06-10T08:18:22.402Z,854.07
2019-06-10T08:19:31.591Z,853.93
2019-06-10T08:20:22.253Z,853.90
2019-06-10T08:21:22.699Z,853.91
2019-06-10T08:22:31.196Z,853.92
2019-06-10T08:23:23.364Z,853.95
2019-06-10T08:24:22.140Z,853.99
2019-06-10T08:25:22.860Z,853.96
2019-06-10T08:26:20.165Z,853.94
2019-06-10T08:27:22.571Z,853.83
2019-06-10T08:28:22.661Z,853.80
2019-06-10T08:29:23.224Z,853.71
2019-06-10T08:30:26.660Z,853.63
2019-06-10T08:31:22.594Z,853.58
2019-06-10T08:32:21.286Z,853.60
2019-06-10T08:33:22.491Z,853.73
2019-06-10T08:34:22.214Z,853.76
2019-06-10T08:35:35.009Z,853.86
2019-06-10T08:36:03.930Z,853.88
2019-06-10T08:37:04.288Z,853.87
2019-06-10T08:38:02.535Z,853.82
2019-06-10T08:39:03.183Z,853.72
2019-06-10T08:40:03.765Z,853.58
2019-06-10T08:41:03.242Z,853.55
2019-06-10T08:42:03.210Z,853.59
2019-06-10T08:43:04.239Z,853.50
2019-06-10T08:44:02.635Z,853.45
2019-06-10T08:45:03.508Z,853.47
2019-06-10T08:46:02.751Z,853.53
2019-06-10T08:47:03.087Z,853.52
2019-06-10T08:48:03.493Z,853.45
2019-06-10T08:49:03.169Z,853.36
2019-06-10T08:50:02.608Z,853.30
2019-06-10T08:51:03.941Z,853.25
2019-06-10T08:52:02.820Z,853.28
2019-06-10T08:53:13.542Z,853.32
2019-06-10T08:54:03.473Z,853.33
2019-06-10T08:55:03.412Z,853.34
2019-06-10T08:56:02.871Z,853.29
2019-06-10T08:57:04.324Z,853.23
2019-06-10T08:58:02.758Z,853.20
2019-06-10T08:59:03.270Z,853.24
2019-06-10T09:00:07.054Z,853.32
2019-06-10T09:01:03.003Z,853.30
2019-06-10T09:02:02.971Z,853.32
2019-06-10T09:03:04.093Z,853.21
2019-06-10T09:04:03.066Z,853.05
2019-06-10T09:05:03.618Z,853.07
2019-06-10T09:06:02.788Z,853.16
2019-06-10T09:07:04.187Z,853.13
2019-06-10T09:08:02.869Z,853.10
2019-06-10T09:09:03.168Z,853.03
2019-06-10T09:10:02.999Z,852.97
2019-06-10T09:11:02.488Z,853.01
2019-06-10T09:12:03.589Z,852.99
2019-06-10T09:13:02.765Z,852.97
2019-06-10T09:14:02.600Z,852.96
2019-06-10T09:15:03.727Z,852.96
2019-06-10T09:16:14.753Z,853.00
2019-06-10T09:17:03.372Z,853.07
2019-06-10T09:18:02.613Z,853.04
2019-06-10T09:19:02.308Z,852.99
2019-06-10T09:20:02.969Z,852.88
2019-06-10T09:21:02.304Z,852.88
2019-06-10T09:22:03.473Z,852.94
2019-06-10T09:23:18.419Z,853.01
2019-06-10T09:24:03.914Z,853.00
2019-06-10T09:25:02.924Z,852.91
2019-06-10T09:26:03.635Z,852.92
2019-06-10T09:27:02.934Z,853.04
2019-06-10T09:28:02.395Z,853.04
2019-06-10T09:29:02.929Z,853.07
2019-06-10T09:30:02.958Z,853.06
2019-06-10T09:31:04.226Z,853.09
2019-06-10T09:32:02.178Z,853.08
2019-06-10T09:33:04.260Z,853.11
2019-06-10T09:34:03.910Z,853.06
2019-06-10T09:35:03.370Z,853.07
2019-06-10T09:36:03.265Z,853.03
2019-06-10T09:37:03.528Z,852.85
2019-06-10T09:38:03.690Z,852.90
2019-06-10T09:39:03.978Z,852.90
2019-06-10T09:40:03.475Z,853.09
2019-06-10T09:41:05.688Z,853.20
2019-06-10T09:42:06.206Z,853.18
2019-06-10T09:43:02.617Z,853.10
2019-06-10T09:44:03.200Z,853.01
2019-06-10T09:45:02.586Z,853.01
2019-06-10T09:46:03.481Z,853.07
2019-06-10T09:47:03.428Z,853.16
2019-06-10T09:48:03.946Z,853.18
2019-06-10T09:49:02.205Z,853.10
2019-06-10T09:50:03.205Z,853.09
2019-06-10T09:51:02.519Z,853.11
2019-06-10T09:52:03.307Z,853.05
2019-06-10T09:53:03.964Z,853.06
2019-06-10T09:54:06.133Z,852.94
2019-06-10T09:55:03.235Z,852.98
2019-06-10T09:56:04.119Z,852.94
2019-06-10T09:57:02.392Z,852.88
2019-06-10T09:58:03.202Z,852.82
2019-06-10T09:59:03.743Z,852.77
2019-06-10T10:00:04.062Z,852.72
2019-06-10T10:01:03.216Z,852.58
2019-06-10T10:02:03.614Z,852.54
2019-06-10T10:03:03.349Z,852.59
2019-06-10T10:04:01.420Z,852.66
2019-06-10T10:05:01.294Z,852.70
2019-06-10T10:06:11.550Z,852.64
2019-06-10T10:07:03.119Z,852.55
2019-06-10T10:08:01.315Z,852.55
2019-06-10T10:09:03.961Z,852.53
2019-06-10T10:10:04.199Z,852.52
2019-06-10T10:11:01.237Z,852.42
2019-06-10T10:12:02.993Z,852.45
2019-06-10T10:13:02.728Z,852.46
2019-06-10T10:14:06.466Z,852.44
2019-06-10T10:15:22.026Z,852.50
2019-06-10T10:16:02.708Z,852.49
2019-06-10T10:17:04.465Z,852.46
2019-06-10T10:18:02.463Z,852.33
2019-06-10T10:19:05.137Z,852.35
2019-06-10T10:20:03.179Z,852.28
2019-06-10T10:21:03.714Z,852.22
2019-06-10T10:22:03.028Z,852.18
2019-06-10T10:23:02.703Z,852.20
2019-06-10T10:24:08.011Z,852.21
2019-06-10T10:25:02.994Z,852.21
2019-06-10T10:26:03.469Z,852.19
2019-06-10T10:27:02.692Z,852.19
2019-06-10T10:28:03.197Z,852.17
2019-06-10T10:29:02.814Z,852.14
2019-06-10T10:30:03.365Z,852.15
2019-06-10T10:31:03.542Z,852.09
2019-06-10T10:32:02.595Z,852.12
2019-06-10T10:33:02.872Z,852.21
2019-06-10T10:34:02.728Z,852.21
2019-06-10T10:35:03.082Z,852.26
2019-06-10T10:36:02.885Z,852.13
2019-06-10T10:37:02.893Z,852.14
2019-06-10T10:38:03.717Z,852.09
2019-06-10T10:39:02.430Z,852.07
2019-06-10T10:40:03.225Z,852.02
2019-06-10T10:41:04.215Z,852.04
2019-06-10T10:42:03.126Z,852.04
2019-06-10T10:43:22.982Z,851.99
2019-06-10T10:44:03.132Z,852.10
2019-06-10T10:45:02.754Z,852.09
2019-06-10T10:46:05.262Z,852.01
2019-06-10T10:47:03.682Z,851.99
2019-06-10T10:48:02.519Z,851.90
2019-06-10T10:49:02.668Z,851.81
2019-06-10T10:50:02.828Z,851.79
2019-06-10T10:51:03.487Z,851.77
2019-06-10T10:52:02.682Z,851.88
2019-06-10T10:53:00.792Z,851.97
2019-06-10T10:54:20.846Z,851.89
2019-06-10T10:55:06.582Z,851.87
2019-06-10T10:56:02.369Z,851.84
2019-06-10T10:57:02.669Z,851.88
2019-06-10T10:58:03.010Z,851.95
2019-06-10T10:59:02.118Z,851.99
2019-06-10T11:00:03.001Z,851.93
2019-06-10T11:01:04.282Z,851.84
2019-06-10T11:02:02.322Z,851.74
2019-06-10T11:03:02.886Z,851.66
2019-06-10T11:04:03.054Z,851.69
2019-06-10T11:05:07.764Z,851.66
2019-06-10T11:06:01.262Z,851.68
2019-06-10T11:07:01.257Z,851.74
2019-06-10T11:08:00.694Z,851.60
2019-06-10T11:09:01.280Z,851.52
2019-06-10T11:10:00.592Z,851.50
2019-06-10T11:11:01.756Z,851.49
2019-06-10T11:12:02.708Z,851.50
2019-06-10T11:13:02.347Z,851.55
2019-06-10T11:14:03.305Z,851.52
2019-06-10T11:15:02.885Z,851.50
2019-06-10T11:16:00.522Z,851.51
2019-06-10T11:17:02.799Z,851.49
2019-06-10T11:18:01.431Z,851.39
2019-06-10T11:19:02.568Z,851.40
2019-06-10T11:20:00.479Z,851.35
2019-06-10T11:21:04.331Z,851.32
2019-06-10T11:22:02.816Z,851.30
2019-06-10T11:23:02.749Z,851.29
2019-06-10T11:24:04.454Z,851.33
2019-06-10T11:25:00.419Z,851.25
2019-06-10T11:26:00.407Z,851.24
2019-06-10T11:27:02.986Z,851.17
2019-06-10T11:28:03.386Z,851.26
2019-06-10T11:29:02.972Z,851.44
2019-06-10T11:30:02.436Z,851.39
2019-06-10T11:31:00.361Z,851.17
2019-06-10T11:32:02.444Z,851.07
2019-06-10T11:33:03.051Z,851.12
2019-06-10T11:34:00.319Z,851.36
2019-06-10T11:35:02.789Z,851.28
2019-06-10T11:36:02.654Z,851.16
2019-06-10T11:37:02.300Z,851.19
2019-06-10T11:38:03.271Z,851.07
2019-06-10T11:39:02.673Z,851.12
2019-06-10T11:40:02.638Z,851.08
2019-06-10T11:41:00.277Z,851.11
2019-06-10T11:42:02.232Z,851.21
2019-06-10T11:43:01.094Z,851.27
2019-06-10T11:44:00.250Z,851.39
2019-06-10T11:45:02.777Z,851.44
2019-06-10T11:46:06.813Z,851.26
2019-06-10T11:47:03.144Z,851.21
2019-06-10T11:48:02.354Z,851.18
2019-06-10T11:49:00.159Z,851.06
2019-06-10T11:50:03.286Z,851.07
2019-06-10T11:51:04.272Z,851.21
2019-06-10T11:52:00.133Z,851.25
2019-06-10T11:53:07.190Z,851.11
2019-06-10T11:54:00.090Z,851.28
2019-06-10T11:55:11.658Z,851.21
2019-06-10T11:56:02.388Z,851.17
2019-06-10T11:57:00.143Z,851.09
2019-06-10T11:58:00.118Z,851.03
2019-06-10T11:59:09.161Z,851.04
2019-06-10T12:00:05.337Z,851.09
2019-06-10T12:01:03.903Z,851.08
2019-06-10T12:02:05.499Z,851.09
2019-06-10T12:03:03.524Z,851.05
2019-06-10T12:04:03.519Z,851.02
2019-06-10T12:05:06.911Z,851.00
2019-06-10T12:06:02.036Z,850.89
2019-06-10T12:07:02.381Z,850.97
2019-06-10T12:08:01.929Z,851.12
2019-06-10T12:09:02.807Z,851.15
2019-06-10T12:10:01.242Z,851.18
2019-06-10T12:11:02.275Z,851.18
2019-06-10T12:12:02.291Z,851.22
2019-06-10T12:13:04.243Z,851.11
2019-06-10T12:14:04.347Z,851.02
2019-06-10T12:15:01.377Z,850.95
2019-06-10T12:17:32.589Z,850.82
2019-06-10T12:18:07.895Z,850.95
2019-06-10T12:19:02.928Z,850.93
2019-06-10T12:20:06.411Z,850.84
2019-06-10T12:21:03.547Z,850.80
2019-06-10T12:22:04.625Z,851.07
2019-06-10T12:23:04.366Z,851.26
2019-06-10T12:24:02.605Z,851.36
2019-06-10T12:25:25.072Z,851.51
2019-06-10T12:26:01.667Z,851.61
2019-06-10T12:27:01.393Z,851.56
2019-06-10T12:28:03.733Z,851.61
2019-06-10T12:29:05.287Z,851.48
2019-06-10T12:30:04.680Z,851.74
2019-06-10T12:31:02.936Z,852.02
2019-06-10T12:32:06.485Z,852.03